sensor_id;sensor_type;location;lat;lon;timestamp;P1;durP1;ratioP1;P2;durP2;ratioP2
16063;SDS011;8136;53.172;8.256;2023-02-28T00:01:21;4.90;;;4.13;;
16063;SDS011;8136;53.172;8.256;2023-02-28T00:03:48;5.80;;;4.40;;
16063;SDS011;8136;53.172;8.256;2023-02-28T00:06:15;6.00;;;4.07;;
16063;SDS011;8136;53.172;8.256;2023-02-28T00:08:43;5.67;;;4.27;;
16063;SDS011;8136;53.172;8.256;2023-02-28T00:11:11;6.23;;;4.53;;
16063;SDS011;8136;53.172;8.256;2023-02-28T00:13:39;6.10;;;4.30;;
16063;SDS011;8136;53.172;8.256;2023-02-28T00:16:09;5.70;;;3.97;;
16063;SDS011;8136;53.172;8.256;2023-02-28T00:18:38;5.10;;;4.10;;
16063;SDS011;8136;53.172;8.256;2023-02-28T00:21:05;4.97;;;4.37;;
16063;SDS011;8136;53.172;8.256;2023-02-28T00:23:33;7.80;;;4.33;;
16063;SDS011;8136;53.172;8.256;2023-02-28T00:26:00;9.97;;;4.77;;
16063;SDS011;8136;53.172;8.256;2023-02-28T00:28:28;5.07;;;4.30;;
16063;SDS011;8136;53.172;8.256;2023-02-28T00:30:55;6.93;;;4.70;;
16063;SDS011;8136;53.172;8.256;2023-02-28T00:33:23;11.40;;;4.37;;
16063;SDS011;8136;53.172;8.256;2023-02-28T00:35:50;5.57;;;4.23;;
16063;SDS011;8136;53.172;8.256;2023-02-28T00:38:17;7.47;;;4.70;;
16063;SDS011;8136;53.172;8.256;2023-02-28T00:40:44;7.57;;;4.40;;
16063;SDS011;8136;53.172;8.256;2023-02-28T00:43:11;6.47;;;4.40;;
16063;SDS011;8136;53.172;8.256;2023-02-28T00:45:38;8.17;;;4.40;;
16063;SDS011;8136;53.172;8.256;2023-02-28T00:48:07;5.70;;;3.73;;
16063;SDS011;8136;53.172;8.256;2023-02-28T00:50:36;6.00;;;4.10;;
16063;SDS011;8136;53.172;8.256;2023-02-28T00:53:03;6.03;;;3.67;;
16063;SDS011;8136;53.172;8.256;2023-02-28T00:55:29;6.07;;;4.60;;
16063;SDS011;8136;53.172;8.256;2023-02-28T00:57:56;6.57;;;4.13;;
16063;SDS011;8136;53.172;8.256;2023-02-28T01:00:23;6.00;;;4.00;;
16063;SDS011;8136;53.172;8.256;2023-02-28T01:02:50;6.63;;;3.87;;
16063;SDS011;8136;53.172;8.256;2023-02-28T01:05:17;6.60;;;4.10;;
16063;SDS011;8136;53.172;8.256;2023-02-28T01:07:45;7.20;;;4.50;;
16063;SDS011;8136;53.172;8.256;2023-02-28T01:10:12;7.57;;;4.33;;
16063;SDS011;8136;53.172;8.256;2023-02-28T01:12:38;6.97;;;4.10;;
16063;SDS011;8136;53.172;8.256;2023-02-28T01:15:06;6.03;;;3.80;;
16063;SDS011;8136;53.172;8.256;2023-02-28T01:17:35;5.90;;;3.93;;
16063;SDS011;8136;53.172;8.256;2023-02-28T01:20:02;6.17;;;3.90;;
16063;SDS011;8136;53.172;8.256;2023-02-28T01:22:30;8.07;;;4.80;;
16063;SDS011;8136;53.172;8.256;2023-02-28T01:24:58;6.57;;;4.33;;
16063;SDS011;8136;53.172;8.256;2023-02-28T01:27:25;5.97;;;4.47;;
16063;SDS011;8136;53.172;8.256;2023-02-28T01:29:52;7.27;;;4.60;;
16063;SDS011;8136;53.172;8.256;2023-02-28T01:32:18;6.60;;;4.27;;
16063;SDS011;8136;53.172;8.256;2023-02-28T01:34:46;4.77;;;4.10;;
16063;SDS011;8136;53.172;8.256;2023-02-28T01:37:13;6.00;;;4.30;;
16063;SDS011;8136;53.172;8.256;2023-02-28T01:39:39;6.73;;;4.40;;
16063;SDS011;8136;53.172;8.256;2023-02-28T01:42:09;5.37;;;4.17;;
16063;SDS011;8136;53.172;8.256;2023-02-28T01:44:55;5.57;;;3.93;;
16063;SDS011;8136;53.172;8.256;2023-02-28T01:47:25;5.57;;;4.43;;
16063;SDS011;8136;53.172;8.256;2023-02-28T01:49:55;5.43;;;3.97;;
16063;SDS011;8136;53.172;8.256;2023-02-28T01:52:22;6.53;;;4.33;;
16063;SDS011;8136;53.172;8.256;2023-02-28T01:54:51;6.53;;;4.40;;
16063;SDS011;8136;53.172;8.256;2023-02-28T01:57:23;6.07;;;4.23;;
16063;SDS011;8136;53.172;8.256;2023-02-28T02:00:08;7.10;;;4.20;;
16063;SDS011;8136;53.172;8.256;2023-02-28T02:02:40;8.57;;;4.50;;
16063;SDS011;8136;53.172;8.256;2023-02-28T02:05:09;6.87;;;4.87;;
16063;SDS011;8136;53.172;8.256;2023-02-28T02:07:38;7.20;;;4.30;;
16063;SDS011;8136;53.172;8.256;2023-02-28T02:10:10;7.10;;;4.37;;
16063;SDS011;8136;53.172;8.256;2023-02-28T02:12:49;7.07;;;4.90;;
16063;SDS011;8136;53.172;8.256;2023-02-28T02:15:30;6.77;;;3.90;;
16063;SDS011;8136;53.172;8.256;2023-02-28T02:18:02;6.07;;;4.03;;
16063;SDS011;8136;53.172;8.256;2023-02-28T02:23:50;5.80;;;4.30;;
16063;SDS011;8136;53.172;8.256;2023-02-28T02:26:34;6.03;;;4.07;;
16063;SDS011;8136;53.172;8.256;2023-02-28T02:29:47;7.17;;;4.03;;
16063;SDS011;8136;53.172;8.256;2023-02-28T02:32:48;5.53;;;4.07;;
16063;SDS011;8136;53.172;8.256;2023-02-28T02:35:47;4.43;;;3.87;;
16063;SDS011;8136;53.172;8.256;2023-02-28T02:38:18;7.87;;;4.27;;
16063;SDS011;8136;53.172;8.256;2023-02-28T02:40:53;6.03;;;4.33;;
16063;SDS011;8136;53.172;8.256;2023-02-28T02:43:32;6.03;;;4.10;;
16063;SDS011;8136;53.172;8.256;2023-02-28T02:46:07;7.80;;;4.60;;
16063;SDS011;8136;53.172;8.256;2023-02-28T02:48:40;4.80;;;4.33;;
16063;SDS011;8136;53.172;8.256;2023-02-28T02:51:12;5.90;;;4.27;;
16063;SDS011;8136;53.172;8.256;2023-02-28T02:53:43;5.03;;;3.90;;
16063;SDS011;8136;53.172;8.256;2023-02-28T02:56:15;5.40;;;4.40;;
16063;SDS011;8136;53.172;8.256;2023-02-28T02:58:45;7.17;;;4.17;;
16063;SDS011;8136;53.172;8.256;2023-02-28T03:01:18;6.03;;;4.40;;
16063;SDS011;8136;53.172;8.256;2023-02-28T03:03:52;7.30;;;4.00;;
16063;SDS011;8136;53.172;8.256;2023-02-28T03:06:23;8.37;;;4.60;;
16063;SDS011;8136;53.172;8.256;2023-02-28T03:09:02;6.33;;;4.10;;
16063;SDS011;8136;53.172;8.256;2023-02-28T03:11:29;6.77;;;4.20;;
16063;SDS011;8136;53.172;8.256;2023-02-28T03:14:06;6.13;;;4.00;;
16063;SDS011;8136;53.172;8.256;2023-02-28T03:20:01;4.67;;;3.97;;
16063;SDS011;8136;53.172;8.256;2023-02-28T03:22:45;5.37;;;4.00;;
16063;SDS011;8136;53.172;8.256;2023-02-28T03:25:19;8.63;;;5.03;;
16063;SDS011;8136;53.172;8.256;2023-02-28T03:27:59;5.23;;;4.10;;
16063;SDS011;8136;53.172;8.256;2023-02-28T03:30:32;7.13;;;4.10;;
16063;SDS011;8136;53.172;8.256;2023-02-28T03:33:05;6.00;;;4.27;;
16063;SDS011;8136;53.172;8.256;2023-02-28T03:35:39;5.70;;;3.97;;
16063;SDS011;8136;53.172;8.256;2023-02-28T03:38:12;6.07;;;4.00;;
16063;SDS011;8136;53.172;8.256;2023-02-28T03:40:45;6.33;;;4.23;;
16063;SDS011;8136;53.172;8.256;2023-02-28T03:43:18;7.10;;;4.47;;
16063;SDS011;8136;53.172;8.256;2023-02-28T03:45:51;8.00;;;4.27;;
16063;SDS011;8136;53.172;8.256;2023-02-28T03:48:27;6.63;;;4.40;;
16063;SDS011;8136;53.172;8.256;2023-02-28T03:51:00;9.20;;;4.50;;
16063;SDS011;8136;53.172;8.256;2023-02-28T03:53:32;6.03;;;3.73;;
16063;SDS011;8136;53.172;8.256;2023-02-28T03:56:08;7.47;;;3.93;;
16063;SDS011;8136;53.172;8.256;2023-02-28T03:58:41;6.30;;;4.10;;
16063;SDS011;8136;53.172;8.256;2023-02-28T04:01:17;5.53;;;4.53;;
16063;SDS011;8136;53.172;8.256;2023-02-28T04:03:47;6.97;;;4.77;;
16063;SDS011;8136;53.172;8.256;2023-02-28T04:06:17;4.83;;;3.77;;
16063;SDS011;8136;53.172;8.256;2023-02-28T04:08:49;6.40;;;4.10;;
16063;SDS011;8136;53.172;8.256;2023-02-28T04:11:26;6.80;;;4.63;;
16063;SDS011;8136;53.172;8.256;2023-02-28T04:14:03;6.23;;;4.20;;
16063;SDS011;8136;53.172;8.256;2023-02-28T04:16:35;6.47;;;4.50;;
16063;SDS011;8136;53.172;8.256;2023-02-28T04:19:07;6.33;;;4.33;;
16063;SDS011;8136;53.172;8.256;2023-02-28T04:21:36;7.20;;;4.80;;
16063;SDS011;8136;53.172;8.256;2023-02-28T04:24:06;6.17;;;4.63;;
16063;SDS011;8136;53.172;8.256;2023-02-28T04:26:34;8.57;;;4.43;;
16063;SDS011;8136;53.172;8.256;2023-02-28T04:29:03;7.10;;;4.60;;
16063;SDS011;8136;53.172;8.256;2023-02-28T04:31:31;6.17;;;4.50;;
16063;SDS011;8136;53.172;8.256;2023-02-28T04:34:03;5.97;;;4.27;;
16063;SDS011;8136;53.172;8.256;2023-02-28T04:36:30;6.10;;;4.23;;
16063;SDS011;8136;53.172;8.256;2023-02-28T04:39:00;8.23;;;5.13;;
16063;SDS011;8136;53.172;8.256;2023-02-28T04:41:29;6.37;;;4.50;;
16063;SDS011;8136;53.172;8.256;2023-02-28T04:43:56;7.60;;;4.90;;
16063;SDS011;8136;53.172;8.256;2023-02-28T04:46:26;5.63;;;4.23;;
16063;SDS011;8136;53.172;8.256;2023-02-28T04:48:56;8.07;;;4.93;;
16063;SDS011;8136;53.172;8.256;2023-02-28T04:51:23;7.03;;;4.43;;
16063;SDS011;8136;53.172;8.256;2023-02-28T04:53:49;5.60;;;4.63;;
16063;SDS011;8136;53.172;8.256;2023-02-28T04:56:16;10.00;;;5.37;;
16063;SDS011;8136;53.172;8.256;2023-02-28T04:58:45;6.27;;;4.83;;
16063;SDS011;8136;53.172;8.256;2023-02-28T05:01:21;7.97;;;4.77;;
16063;SDS011;8136;53.172;8.256;2023-02-28T05:03:50;12.87;;;5.40;;
16063;SDS011;8136;53.172;8.256;2023-02-28T05:06:18;7.93;;;5.40;;
16063;SDS011;8136;53.172;8.256;2023-02-28T05:08:46;5.70;;;4.50;;
16063;SDS011;8136;53.172;8.256;2023-02-28T05:11:18;6.67;;;4.67;;
16063;SDS011;8136;53.172;8.256;2023-02-28T05:13:47;8.87;;;5.50;;
16063;SDS011;8136;53.172;8.256;2023-02-28T05:16:15;7.53;;;5.10;;
16063;SDS011;8136;53.172;8.256;2023-02-28T05:18:42;8.93;;;4.90;;
16063;SDS011;8136;53.172;8.256;2023-02-28T05:21:21;5.97;;;4.80;;
16063;SDS011;8136;53.172;8.256;2023-02-28T05:24:03;8.30;;;5.30;;
16063;SDS011;8136;53.172;8.256;2023-02-28T05:26:34;7.03;;;5.50;;
16063;SDS011;8136;53.172;8.256;2023-02-28T05:29:10;5.87;;;5.13;;
16063;SDS011;8136;53.172;8.256;2023-02-28T05:31:42;6.97;;;5.07;;
16063;SDS011;8136;53.172;8.256;2023-02-28T05:34:09;6.83;;;4.90;;
16063;SDS011;8136;53.172;8.256;2023-02-28T05:36:40;8.27;;;5.33;;
16063;SDS011;8136;53.172;8.256;2023-02-28T05:39:07;7.43;;;5.43;;
16063;SDS011;8136;53.172;8.256;2023-02-28T05:41:40;6.77;;;5.80;;
16063;SDS011;8136;53.172;8.256;2023-02-28T05:44:13;7.67;;;5.50;;
16063;SDS011;8136;53.172;8.256;2023-02-28T05:46:41;7.90;;;5.40;;
16063;SDS011;8136;53.172;8.256;2023-02-28T05:49:11;8.13;;;5.87;;
16063;SDS011;8136;53.172;8.256;2023-02-28T05:51:43;8.83;;;5.60;;
16063;SDS011;8136;53.172;8.256;2023-02-28T05:54:10;10.10;;;5.60;;
16063;SDS011;8136;53.172;8.256;2023-02-28T05:56:37;6.23;;;5.30;;
16063;SDS011;8136;53.172;8.256;2023-02-28T05:59:05;9.40;;;5.70;;
16063;SDS011;8136;53.172;8.256;2023-02-28T06:01:39;7.50;;;5.67;;
16063;SDS011;8136;53.172;8.256;2023-02-28T06:04:10;9.40;;;5.20;;
16063;SDS011;8136;53.172;8.256;2023-02-28T06:06:39;8.40;;;5.57;;
16063;SDS011;8136;53.172;8.256;2023-02-28T06:09:08;7.33;;;5.03;;
16063;SDS011;8136;53.172;8.256;2023-02-28T06:11:43;9.03;;;5.53;;
16063;SDS011;8136;53.172;8.256;2023-02-28T06:14:12;9.70;;;6.30;;
16063;SDS011;8136;53.172;8.256;2023-02-28T06:16:43;11.33;;;5.57;;
16063;SDS011;8136;53.172;8.256;2023-02-28T06:19:10;6.80;;;5.00;;
16063;SDS011;8136;53.172;8.256;2023-02-28T06:21:37;9.23;;;5.67;;
16063;SDS011;8136;53.172;8.256;2023-02-28T06:24:07;8.23;;;5.33;;
16063;SDS011;8136;53.172;8.256;2023-02-28T06:33:54;14.30;;;5.60;;
16063;SDS011;8136;53.172;8.256;2023-02-28T06:37:00;7.63;;;5.03;;
16063;SDS011;8136;53.172;8.256;2023-02-28T06:39:35;10.17;;;5.43;;
16063;SDS011;8136;53.172;8.256;2023-02-28T06:42:05;9.03;;;5.97;;
16063;SDS011;8136;53.172;8.256;2023-02-28T06:44:32;9.20;;;5.93;;
16063;SDS011;8136;53.172;8.256;2023-02-28T06:47:01;6.80;;;5.30;;
16063;SDS011;8136;53.172;8.256;2023-02-28T06:49:53;5.87;;;5.27;;
16063;SDS011;8136;53.172;8.256;2023-02-28T06:52:24;8.13;;;5.30;;
16063;SDS011;8136;53.172;8.256;2023-02-28T06:55:38;6.73;;;4.83;;
16063;SDS011;8136;53.172;8.256;2023-02-28T06:58:12;8.80;;;5.00;;
16063;SDS011;8136;53.172;8.256;2023-02-28T07:00:44;8.00;;;4.67;;
16063;SDS011;8136;53.172;8.256;2023-02-28T07:03:17;8.63;;;4.70;;
16063;SDS011;8136;53.172;8.256;2023-02-28T07:05:45;6.20;;;4.23;;
16063;SDS011;8136;53.172;8.256;2023-02-28T07:08:12;7.23;;;4.63;;
16063;SDS011;8136;53.172;8.256;2023-02-28T07:10:39;8.37;;;4.73;;
16063;SDS011;8136;53.172;8.256;2023-02-28T07:13:06;7.93;;;4.50;;
16063;SDS011;8136;53.172;8.256;2023-02-28T07:15:34;7.10;;;4.63;;
16063;SDS011;8136;53.172;8.256;2023-02-28T07:18:01;6.63;;;4.40;;
16063;SDS011;8136;53.172;8.256;2023-02-28T07:20:28;5.27;;;4.77;;
16063;SDS011;8136;53.172;8.256;2023-02-28T07:22:57;6.57;;;4.93;;
16063;SDS011;8136;53.172;8.256;2023-02-28T07:25:24;6.60;;;5.13;;
16063;SDS011;8136;53.172;8.256;2023-02-28T07:27:51;5.83;;;4.83;;
16063;SDS011;8136;53.172;8.256;2023-02-28T07:30:19;6.23;;;4.50;;
16063;SDS011;8136;53.172;8.256;2023-02-28T07:32:46;9.13;;;4.57;;
16063;SDS011;8136;53.172;8.256;2023-02-28T07:35:13;7.57;;;4.27;;
16063;SDS011;8136;53.172;8.256;2023-02-28T07:37:40;8.23;;;4.87;;
16063;SDS011;8136;53.172;8.256;2023-02-28T07:40:09;7.43;;;4.47;;
16063;SDS011;8136;53.172;8.256;2023-02-28T07:42:37;7.90;;;4.30;;
16063;SDS011;8136;53.172;8.256;2023-02-28T07:45:05;4.63;;;4.10;;
16063;SDS011;8136;53.172;8.256;2023-02-28T07:47:32;4.57;;;3.70;;
16063;SDS011;8136;53.172;8.256;2023-02-28T07:49:59;6.67;;;4.33;;
16063;SDS011;8136;53.172;8.256;2023-02-28T07:52:26;7.07;;;4.10;;
16063;SDS011;8136;53.172;8.256;2023-02-28T07:54:52;6.53;;;4.13;;
16063;SDS011;8136;53.172;8.256;2023-02-28T07:57:20;7.40;;;4.50;;
16063;SDS011;8136;53.172;8.256;2023-02-28T07:59:47;8.30;;;4.70;;
16063;SDS011;8136;53.172;8.256;2023-02-28T08:02:14;7.63;;;4.43;;
16063;SDS011;8136;53.172;8.256;2023-02-28T08:04:42;7.43;;;4.17;;
16063;SDS011;8136;53.172;8.256;2023-02-28T08:07:09;8.00;;;4.47;;
16063;SDS011;8136;53.172;8.256;2023-02-28T08:09:38;9.07;;;4.10;;
16063;SDS011;8136;53.172;8.256;2023-02-28T08:12:05;5.70;;;3.80;;
16063;SDS011;8136;53.172;8.256;2023-02-28T08:14:34;6.77;;;4.00;;
16063;SDS011;8136;53.172;8.256;2023-02-28T08:17:00;6.67;;;3.80;;
16063;SDS011;8136;53.172;8.256;2023-02-28T08:19:28;6.00;;;4.07;;
16063;SDS011;8136;53.172;8.256;2023-02-28T08:21:55;4.77;;;3.67;;
16063;SDS011;8136;53.172;8.256;2023-02-28T08:24:23;3.53;;;3.23;;
16063;SDS011;8136;53.172;8.256;2023-02-28T08:26:50;8.40;;;3.63;;
16063;SDS011;8136;53.172;8.256;2023-02-28T08:29:17;5.30;;;4.03;;
16063;SDS011;8136;53.172;8.256;2023-02-28T08:31:45;4.30;;;3.70;;
16063;SDS011;8136;53.172;8.256;2023-02-28T08:34:12;6.97;;;3.77;;
16063;SDS011;8136;53.172;8.256;2023-02-28T08:36:40;4.70;;;3.30;;
16063;SDS011;8136;53.172;8.256;2023-02-28T08:39:08;6.60;;;3.60;;
16063;SDS011;8136;53.172;8.256;2023-02-28T08:41:35;5.10;;;3.70;;
16063;SDS011;8136;53.172;8.256;2023-02-28T08:44:02;5.30;;;3.27;;
16063;SDS011;8136;53.172;8.256;2023-02-28T08:46:29;5.00;;;3.77;;
16063;SDS011;8136;53.172;8.256;2023-02-28T08:48:57;7.07;;;3.70;;
16063;SDS011;8136;53.172;8.256;2023-02-28T08:51:26;5.17;;;3.77;;
16063;SDS011;8136;53.172;8.256;2023-02-28T08:53:54;5.73;;;3.33;;
16063;SDS011;8136;53.172;8.256;2023-02-28T08:56:21;4.80;;;3.00;;
16063;SDS011;8136;53.172;8.256;2023-02-28T08:58:49;5.83;;;3.10;;
16063;SDS011;8136;53.172;8.256;2023-02-28T09:01:16;5.73;;;2.80;;
16063;SDS011;8136;53.172;8.256;2023-02-28T09:03:46;6.00;;;3.50;;
16063;SDS011;8136;53.172;8.256;2023-02-28T09:06:15;4.80;;;3.00;;
16063;SDS011;8136;53.172;8.256;2023-02-28T09:08:44;3.00;;;2.43;;
16063;SDS011;8136;53.172;8.256;2023-02-28T09:11:11;3.33;;;2.20;;
16063;SDS011;8136;53.172;8.256;2023-02-28T09:13:38;2.50;;;2.30;;
16063;SDS011;8136;53.172;8.256;2023-02-28T09:16:06;2.60;;;2.10;;
16063;SDS011;8136;53.172;8.256;2023-02-28T09:18:34;3.90;;;2.60;;
16063;SDS011;8136;53.172;8.256;2023-02-28T09:21:02;4.27;;;2.20;;
16063;SDS011;8136;53.172;8.256;2023-02-28T09:23:31;3.43;;;2.17;;
16063;SDS011;8136;53.172;8.256;2023-02-28T09:25:57;2.03;;;1.70;;
16063;SDS011;8136;53.172;8.256;2023-02-28T09:28:24;3.37;;;1.90;;
16063;SDS011;8136;53.172;8.256;2023-02-28T09:30:52;4.37;;;1.83;;
16063;SDS011;8136;53.172;8.256;2023-02-28T09:33:20;3.30;;;2.17;;
16063;SDS011;8136;53.172;8.256;2023-02-28T09:35:48;3.20;;;1.70;;
16063;SDS011;8136;53.172;8.256;2023-02-28T09:38:15;2.63;;;1.97;;
16063;SDS011;8136;53.172;8.256;2023-02-28T09:40:47;2.60;;;1.77;;
16063;SDS011;8136;53.172;8.256;2023-02-28T09:43:16;2.00;;;1.80;;
16063;SDS011;8136;53.172;8.256;2023-02-28T09:45:47;3.10;;;1.90;;
16063;SDS011;8136;53.172;8.256;2023-02-28T09:48:17;2.23;;;1.63;;
16063;SDS011;8136;53.172;8.256;2023-02-28T09:50:48;1.70;;;1.33;;
16063;SDS011;8136;53.172;8.256;2023-02-28T09:53:19;4.17;;;1.87;;
16063;SDS011;8136;53.172;8.256;2023-02-28T09:55:50;2.43;;;1.90;;
16063;SDS011;8136;53.172;8.256;2023-02-28T09:58:22;2.93;;;1.60;;
16063;SDS011;8136;53.172;8.256;2023-02-28T10:00:56;3.27;;;2.20;;
16063;SDS011;8136;53.172;8.256;2023-02-28T10:03:27;7.13;;;1.87;;
16063;SDS011;8136;53.172;8.256;2023-02-28T10:05:59;2.73;;;1.67;;
16063;SDS011;8136;53.172;8.256;2023-02-28T10:08:31;3.20;;;1.80;;
16063;SDS011;8136;53.172;8.256;2023-02-28T10:11:07;4.20;;;1.70;;
16063;SDS011;8136;53.172;8.256;2023-02-28T10:13:40;4.77;;;1.70;;
16063;SDS011;8136;53.172;8.256;2023-02-28T10:16:16;1.43;;;1.33;;
16063;SDS011;8136;53.172;8.256;2023-02-28T10:18:51;2.97;;;1.60;;
16063;SDS011;8136;53.172;8.256;2023-02-28T10:21:23;2.10;;;1.63;;
16063;SDS011;8136;53.172;8.256;2023-02-28T10:23:55;3.03;;;1.47;;
16063;SDS011;8136;53.172;8.256;2023-02-28T10:26:31;2.57;;;1.70;;
16063;SDS011;8136;53.172;8.256;2023-02-28T10:28:58;3.37;;;1.40;;
16063;SDS011;8136;53.172;8.256;2023-02-28T10:31:26;2.53;;;1.50;;
16063;SDS011;8136;53.172;8.256;2023-02-28T10:33:52;3.47;;;1.30;;
16063;SDS011;8136;53.172;8.256;2023-02-28T10:36:20;2.33;;;1.80;;
16063;SDS011;8136;53.172;8.256;2023-02-28T10:38:47;3.63;;;1.60;;
16063;SDS011;8136;53.172;8.256;2023-02-28T10:41:16;4.23;;;3.40;;
16063;SDS011;8136;53.172;8.256;2023-02-28T10:43:55;3.33;;;1.17;;
16063;SDS011;8136;53.172;8.256;2023-02-28T10:46:40;1.90;;;1.40;;
16063;SDS011;8136;53.172;8.256;2023-02-28T10:49:12;3.53;;;1.37;;
16063;SDS011;8136;53.172;8.256;2023-02-28T10:51:41;2.30;;;1.20;;
16063;SDS011;8136;53.172;8.256;2023-02-28T10:54:14;2.30;;;1.33;;
16063;SDS011;8136;53.172;8.256;2023-02-28T10:56:42;2.47;;;1.20;;
16063;SDS011;8136;53.172;8.256;2023-02-28T10:59:24;3.20;;;1.47;;
16063;SDS011;8136;53.172;8.256;2023-02-28T11:01:54;2.63;;;1.60;;
16063;SDS011;8136;53.172;8.256;2023-02-28T11:04:32;1.70;;;1.40;;
16063;SDS011;8136;53.172;8.256;2023-02-28T11:07:01;1.63;;;1.27;;
16063;SDS011;8136;53.172;8.256;2023-02-28T11:09:30;2.37;;;1.27;;
16063;SDS011;8136;53.172;8.256;2023-02-28T11:11:59;1.97;;;1.20;;
16063;SDS011;8136;53.172;8.256;2023-02-28T11:14:30;2.00;;;1.30;;
16063;SDS011;8136;53.172;8.256;2023-02-28T11:17:01;1.20;;;1.10;;
16063;SDS011;8136;53.172;8.256;2023-02-28T11:19:40;1.73;;;1.13;;
16063;SDS011;8136;53.172;8.256;2023-02-28T11:22:11;2.37;;;1.40;;
16063;SDS011;8136;53.172;8.256;2023-02-28T11:24:45;1.60;;;1.20;;
16063;SDS011;8136;53.172;8.256;2023-02-28T11:27:25;2.20;;;1.27;;
16063;SDS011;8136;53.172;8.256;2023-02-28T11:30:24;3.57;;;2.40;;
16063;SDS011;8136;53.172;8.256;2023-02-28T11:32:53;4.27;;;2.00;;
16063;SDS011;8136;53.172;8.256;2023-02-28T11:35:21;1.63;;;1.20;;
16063;SDS011;8136;53.172;8.256;2023-02-28T11:37:52;2.33;;;1.20;;
16063;SDS011;8136;53.172;8.256;2023-02-28T11:40:21;3.00;;;1.37;;
16063;SDS011;8136;53.172;8.256;2023-02-28T11:42:56;2.33;;;1.27;;
16063;SDS011;8136;53.172;8.256;2023-02-28T11:45:36;1.37;;;1.27;;
16063;SDS011;8136;53.172;8.256;2023-02-28T11:48:11;3.73;;;1.70;;
16063;SDS011;8136;53.172;8.256;2023-02-28T11:50:46;2.00;;;1.57;;
16063;SDS011;8136;53.172;8.256;2023-02-28T11:53:31;1.57;;;1.23;;
16063;SDS011;8136;53.172;8.256;2023-02-28T11:56:10;2.60;;;1.20;;
16063;SDS011;8136;53.172;8.256;2023-02-28T11:58:47;2.00;;;1.40;;
16063;SDS011;8136;53.172;8.256;2023-02-28T12:01:25;2.77;;;1.23;;
16063;SDS011;8136;53.172;8.256;2023-02-28T12:04:08;1.37;;;1.20;;
16063;SDS011;8136;53.172;8.256;2023-02-28T12:06:44;1.47;;;1.33;;
16063;SDS011;8136;53.172;8.256;2023-02-28T12:09:23;2.60;;;1.40;;
16063;SDS011;8136;53.172;8.256;2023-02-28T12:12:02;1.97;;;1.27;;
16063;SDS011;8136;53.172;8.256;2023-02-28T12:14:50;2.23;;;1.30;;
16063;SDS011;8136;53.172;8.256;2023-02-28T12:17:43;1.77;;;1.17;;
16063;SDS011;8136;53.172;8.256;2023-02-28T12:20:22;1.90;;;1.30;;
16063;SDS011;8136;53.172;8.256;2023-02-28T12:22:58;2.20;;;1.60;;
16063;SDS011;8136;53.172;8.256;2023-02-28T12:25:56;2.97;;;1.50;;
16063;SDS011;8136;53.172;8.256;2023-02-28T12:28:29;2.50;;;1.13;;
16063;SDS011;8136;53.172;8.256;2023-02-28T12:31:03;1.60;;;1.50;;
16063;SDS011;8136;53.172;8.256;2023-02-28T12:33:36;1.50;;;1.33;;
16063;SDS011;8136;53.172;8.256;2023-02-28T12:36:09;3.90;;;1.60;;
16063;SDS011;8136;53.172;8.256;2023-02-28T12:38:43;2.43;;;1.20;;
16063;SDS011;8136;53.172;8.256;2023-02-28T12:41:13;1.60;;;1.30;;
16063;SDS011;8136;53.172;8.256;2023-02-28T12:43:43;1.73;;;1.50;;
16063;SDS011;8136;53.172;8.256;2023-02-28T12:46:12;2.40;;;1.40;;
16063;SDS011;8136;53.172;8.256;2023-02-28T12:48:46;1.50;;;1.27;;
16063;SDS011;8136;53.172;8.256;2023-02-28T12:51:16;1.57;;;1.40;;
16063;SDS011;8136;53.172;8.256;2023-02-28T12:53:49;1.93;;;1.50;;
16063;SDS011;8136;53.172;8.256;2023-02-28T12:56:24;2.07;;;1.33;;
16063;SDS011;8136;53.172;8.256;2023-02-28T12:59:01;2.00;;;1.47;;
16063;SDS011;8136;53.172;8.256;2023-02-28T13:01:40;2.13;;;1.47;;
16063;SDS011;8136;53.172;8.256;2023-02-28T13:04:38;2.60;;;1.40;;
16063;SDS011;8136;53.172;8.256;2023-02-28T13:07:33;2.17;;;1.63;;
16063;SDS011;8136;53.172;8.256;2023-02-28T13:10:17;2.67;;;1.40;;
16063;SDS011;8136;53.172;8.256;2023-02-28T13:12:48;2.70;;;1.57;;
16063;SDS011;8136;53.172;8.256;2023-02-28T13:15:17;2.33;;;1.67;;
16063;SDS011;8136;53.172;8.256;2023-02-28T13:17:49;1.83;;;1.43;;
16063;SDS011;8136;53.172;8.256;2023-02-28T13:20:20;2.40;;;1.50;;
16063;SDS011;8136;53.172;8.256;2023-02-28T13:22:49;2.90;;;1.57;;
16063;SDS011;8136;53.172;8.256;2023-02-28T13:31:31;1.90;;;1.43;;
16063;SDS011;8136;53.172;8.256;2023-02-28T13:36:43;2.77;;;1.53;;
16063;SDS011;8136;53.172;8.256;2023-02-28T13:42:22;2.03;;;1.17;;
16063;SDS011;8136;53.172;8.256;2023-02-28T13:47:52;4.43;;;2.00;;
16063;SDS011;8136;53.172;8.256;2023-02-28T13:50:21;2.60;;;1.47;;
16063;SDS011;8136;53.172;8.256;2023-02-28T13:52:57;3.30;;;1.60;;
16063;SDS011;8136;53.172;8.256;2023-02-28T13:55:53;1.63;;;1.27;;
16063;SDS011;8136;53.172;8.256;2023-02-28T13:58:28;3.57;;;1.53;;
16063;SDS011;8136;53.172;8.256;2023-02-28T14:01:14;2.23;;;1.73;;
16063;SDS011;8136;53.172;8.256;2023-02-28T14:04:11;2.10;;;1.60;;
16063;SDS011;8136;53.172;8.256;2023-02-28T14:07:15;2.27;;;1.63;;
16063;SDS011;8136;53.172;8.256;2023-02-28T14:09:47;2.50;;;1.80;;
16063;SDS011;8136;53.172;8.256;2023-02-28T14:15:40;1.50;;;1.40;;
16063;SDS011;8136;53.172;8.256;2023-02-28T14:18:14;1.83;;;1.60;;
16063;SDS011;8136;53.172;8.256;2023-02-28T14:21:08;3.50;;;1.67;;
16063;SDS011;8136;53.172;8.256;2023-02-28T14:23:43;2.67;;;1.60;;
16063;SDS011;8136;53.172;8.256;2023-02-28T14:26:46;2.87;;;1.50;;
16063;SDS011;8136;53.172;8.256;2023-02-28T14:29:30;3.10;;;1.60;;
16063;SDS011;8136;53.172;8.256;2023-02-28T14:32:11;3.17;;;1.83;;
16063;SDS011;8136;53.172;8.256;2023-02-28T14:34:45;1.80;;;1.30;;
16063;SDS011;8136;53.172;8.256;2023-02-28T14:37:19;2.80;;;1.77;;
16063;SDS011;8136;53.172;8.256;2023-02-28T14:39:51;4.67;;;2.30;;
16063;SDS011;8136;53.172;8.256;2023-02-28T14:42:32;2.17;;;1.43;;
16063;SDS011;8136;53.172;8.256;2023-02-28T14:45:00;2.20;;;1.57;;
16063;SDS011;8136;53.172;8.256;2023-02-28T14:47:28;2.80;;;1.50;;
16063;SDS011;8136;53.172;8.256;2023-02-28T14:49:58;2.13;;;1.60;;
16063;SDS011;8136;53.172;8.256;2023-02-28T14:52:27;2.63;;;1.70;;
16063;SDS011;8136;53.172;8.256;2023-02-28T14:54:55;2.40;;;1.50;;
16063;SDS011;8136;53.172;8.256;2023-02-28T14:57:25;2.50;;;1.60;;
16063;SDS011;8136;53.172;8.256;2023-02-28T14:59:58;1.77;;;1.50;;
16063;SDS011;8136;53.172;8.256;2023-02-28T15:02:29;2.80;;;1.67;;
16063;SDS011;8136;53.172;8.256;2023-02-28T15:05:00;3.33;;;1.50;;
16063;SDS011;8136;53.172;8.256;2023-02-28T15:07:42;2.50;;;1.60;;
16063;SDS011;8136;53.172;8.256;2023-02-28T15:10:11;2.43;;;1.70;;
16063;SDS011;8136;53.172;8.256;2023-02-28T15:12:44;3.30;;;1.73;;
16063;SDS011;8136;53.172;8.256;2023-02-28T15:15:17;4.33;;;1.83;;
16063;SDS011;8136;53.172;8.256;2023-02-28T15:17:46;1.60;;;1.47;;
16063;SDS011;8136;53.172;8.256;2023-02-28T15:20:16;2.60;;;1.70;;
16063;SDS011;8136;53.172;8.256;2023-02-28T15:22:44;3.90;;;1.70;;
16063;SDS011;8136;53.172;8.256;2023-02-28T15:25:13;3.13;;;1.70;;
16063;SDS011;8136;53.172;8.256;2023-02-28T15:27:45;2.00;;;1.80;;
16063;SDS011;8136;53.172;8.256;2023-02-28T15:30:15;4.83;;;1.80;;
16063;SDS011;8136;53.172;8.256;2023-02-28T15:32:46;2.43;;;1.53;;
16063;SDS011;8136;53.172;8.256;2023-02-28T15:35:30;2.70;;;1.70;;
16063;SDS011;8136;53.172;8.256;2023-02-28T15:38:00;3.20;;;1.80;;
16063;SDS011;8136;53.172;8.256;2023-02-28T15:40:29;2.97;;;1.67;;
16063;SDS011;8136;53.172;8.256;2023-02-28T15:42:58;2.47;;;1.63;;
16063;SDS011;8136;53.172;8.256;2023-02-28T15:45:33;3.83;;;2.03;;
16063;SDS011;8136;53.172;8.256;2023-02-28T15:48:05;2.67;;;1.40;;
16063;SDS011;8136;53.172;8.256;2023-02-28T15:50:38;4.00;;;1.60;;
16063;SDS011;8136;53.172;8.256;2023-02-28T15:53:05;2.40;;;1.70;;
16063;SDS011;8136;53.172;8.256;2023-02-28T15:55:39;2.83;;;1.80;;
16063;SDS011;8136;53.172;8.256;2023-02-28T15:58:08;2.00;;;1.50;;
16063;SDS011;8136;53.172;8.256;2023-02-28T16:00:39;2.10;;;1.90;;
16063;SDS011;8136;53.172;8.256;2023-02-28T16:03:24;3.77;;;2.00;;